Time;durP1;ratioP1;P1;durP2;ratioP2;P2;SDS_P1;SDS_P2;PMS_P1;PMS_P2;Temp;Humidity;BMP_temperature;BMP_pressure;BME280_temperature;BME280_humidity;BME280_pressure;Samples;Min_cycle;Max_cycle;Signal;HPM_P1;HPM_P2
2021/04/27 00:00:33;;;;;;;7.60;4.00;;;6.70;58.60;5.50;101325.00;;;;5061085;28;20155;-71
2021/04/27 00:03:00;;;;;;;6.07;3.80;;;6.70;57.90;5.50;101315.00;;;;5061697;28;20055;-71
2021/04/27 00:05:26;;;;;;;5.03;3.67;;;6.70;58.20;5.50;101321.00;;;;5055327;28;20044;-71
2021/04/27 00:07:52;;;;;;;7.40;4.32;;;8.80;59.10;5.40;101318.00;;;;5057578;28;20047;-71
2021/04/27 00:10:20;;;;;;;7.10;4.00;;;6.60;58.40;5.40;101312.00;;;;5064557;28;20044;-71
2021/04/27 00:12:46;;;;;;;9.30;4.18;;;6.60;58.40;5.40;101317.00;;;;5058846;28;20076;-70
2021/04/27 00:15:23;;;;;;;5.65;4.00;;;6.50;59.20;5.30;101308.00;;;;5059897;28;20773;-71
2021/04/27 00:17:49;;;;;;;9.95;4.75;;;6.50;58.90;5.30;101316.00;;;;5062771;28;20565;-71
2021/04/27 00:20:16;;;;;;;7.10;4.10;;;6.50;58.80;5.30;101305.00;;;;5057007;28;20041;-71
2021/04/27 00:22:42;;;;;;;10.15;4.10;;;6.50;58.00;5.20;101305.00;;;;5051012;28;20047;-71
2021/04/27 00:25:09;;;;;;;10.70;4.60;;;6.80;58.60;5.20;101303.00;;;;5056320;28;20107;-71
2021/04/27 00:27:36;;;;;;;7.40;4.07;;;6.40;59.80;5.20;101298.00;;;;5053250;28;20055;-71
2021/04/27 00:30:05;;;;;;;10.48;4.57;;;6.30;59.30;5.10;101290.00;;;;5058921;28;20056;-70
2021/04/27 00:32:31;;;;;;;8.40;4.20;;;6.30;62.40;5.10;101293.00;;;;5057408;28;20100;-73
2021/04/27 00:34:57;;;;;;;11.27;4.40;;;6.30;60.30;5.10;101288.00;;;;5058586;28;20499;-71
2021/04/27 00:37:23;;;;;;;6.93;4.82;;;6.90;60.50;5.10;101282.00;;;;5053186;28;20067;-70
2021/04/27 00:39:49;;;;;;;8.88;4.30;;;6.30;60.00;5.00;101278.00;;;;5053718;28;20033;-71
2021/04/27 00:42:15;;;;;;;7.13;4.40;;;6.20;59.00;5.00;101279.00;;;;5051504;28;20079;-71
2021/04/27 00:44:41;;;;;;;5.95;3.90;;;6.30;59.80;5.00;101267.00;;;;5042816;28;20048;-71
2021/04/27 00:47:06;;;;;;;8.77;3.85;;;6.20;60.50;4.90;101273.00;;;;5043305;28;20044;-71
2021/04/27 00:49:32;;;;;;;8.07;4.20;;;6.20;60.30;4.90;101277.00;;;;5057213;28;20105;-71
2021/04/27 00:51:58;;;;;;;7.88;4.40;;;6.10;61.70;4.90;101270.00;;;;5054631;28;20049;-71
2021/04/27 00:54:24;;;;;;;9.15;4.28;;;6.10;60.90;4.90;101271.00;;;;5050232;28;20368;-71
2021/04/27 00:56:50;;;;;;;8.32;4.47;;;6.10;61.60;4.80;101265.00;;;;5054747;28;20284;-70
2021/04/27 00:59:16;;;;;;;6.85;4.57;;;6.10;60.40;4.80;101265.00;;;;5027229;28;20163;-71
2021/04/27 01:01:44;;;;;;;8.75;4.55;;;6.00;60.20;4.80;101263.00;;;;5059031;28;20115;-71
2021/04/27 01:04:10;;;;;;;7.30;4.30;;;6.00;60.80;4.80;101260.00;;;;5058195;28;20084;-70
2021/04/27 01:06:36;;;;;;;7.53;4.45;;;6.00;59.30;4.80;101262.00;;;;5058077;28;20394;-71
2021/04/27 01:09:08;;;;;;;6.18;3.92;;;6.00;60.00;4.70;101254.00;;;;5040604;28;20047;-71
2021/04/27 01:11:48;;;;;;;7.05;4.47;;;6.00;61.40;4.70;101247.00;;;;5055358;28;20084;-71
2021/04/27 01:14:34;;;;;;;8.85;4.90;;;5.90;59.90;4.70;101249.00;;;;5034239;28;20399;-71
2021/04/27 01:17:09;;;;;;;9.20;4.38;;;5.90;61.40;4.70;101243.00;;;;5055372;28;20109;-71
2021/04/27 01:19:49;;;;;;;8.02;4.53;;;6.60;60.80;4.60;101235.00;;;;5040136;28;20032;-71
2021/04/27 01:22:29;;;;;;;9.75;4.53;;;5.80;60.70;4.60;101225.00;;;;5035880;28;20045;-71
2021/04/27 01:24:58;;;;;;;10.13;4.80;;;5.80;61.10;4.50;101220.00;;;;5035067;28;20048;-71
2021/04/27 01:27:24;;;;;;;8.60;5.07;;;5.80;61.30;4.50;101228.00;;;;5045935;28;20040;-71
2021/04/27 01:29:51;;;;;;;10.40;4.85;;;5.80;61.90;4.50;101212.00;;;;5043581;28;20044;-71
2021/04/27 01:32:19;;;;;;;9.40;4.85;;;5.80;62.40;4.40;101227.00;;;;5052876;28;20395;-69
2021/04/27 01:34:47;;;;;;;7.35;4.35;;;5.70;62.90;4.40;101215.00;;;;5060936;28;20103;-70
2021/04/27 01:37:32;;;;;;;7.68;4.35;;;5.70;64.10;4.40;101221.00;;;;5025987;28;20986;-70
2021/04/27 01:40:00;;;;;;;11.82;4.78;;;5.70;62.30;4.30;101212.00;;;;5032643;28;20043;-70
2021/04/27 01:42:27;;;;;;;9.85;4.88;;;5.60;61.70;4.30;101202.00;;;;5054609;28;20087;-70
2021/04/27 01:44:54;;;;;;;8.27;5.18;;;6.40;62.70;4.30;101204.00;;;;5056606;28;20098;-70
2021/04/27 01:47:20;;;;;;;7.25;4.40;;;5.60;62.20;4.30;101210.00;;;;5051122;28;20052;-70
2021/04/27 01:49:47;;;;;;;8.45;5.65;;;5.60;62.20;4.30;101207.00;;;;5034816;28;20076;-70
2021/04/27 01:52:32;;;;;;;8.57;4.28;;;5.50;62.80;4.30;101195.00;;;;5053112;28;20043;-70
2021/04/27 01:55:04;;;;;;;7.03;4.53;;;5.50;64.10;4.20;101196.00;;;;5058627;28;20048;-70
2021/04/27 01:57:31;;;;;;;11.00;4.97;;;5.50;63.20;4.20;101204.00;;;;5042478;28;20326;-70
2021/04/27 01:59:58;;;;;;;;;;;5.50;63.40;4.10;101196.00;;;;5056462;28;20101;-70
2021/04/27 02:02:41;;;;;;;10.75;5.13;;;5.40;63.90;4.10;101209.00;;;;5054094;28;19931;-70
2021/04/27 02:05:34;;;;;;;8.93;4.90;;;5.40;62.30;4.10;101196.00;;;;5039319;28;20052;-69
2021/04/27 02:08:07;;;;;;;10.50;4.97;;;5.40;63.20;4.10;101197.00;;;;5038548;28;20087;-70
2021/04/27 02:10:35;;;;;;;8.18;4.90;;;5.30;62.80;4.10;101203.00;;;;5070144;28;20470;-70
2021/04/27 02:13:12;;;;;;;10.32;4.78;;;5.30;63.30;4.00;101196.00;;;;5033443;28;20044;-70
2021/04/27 02:15:43;;;;;;;7.72;4.90;;;5.30;62.00;4.00;101196.00;;;;5053715;28;20052;-69
2021/04/27 02:18:29;;;;;;;7.72;5.03;;;5.30;64.20;4.00;101189.00;;;;5041019;28;20036;-70
2021/04/27 02:21:00;;;;;;;6.30;4.47;;;5.30;63.40;3.90;101179.00;;;;5054724;28;20044;-69
2021/04/27 02:23:45;;;;;;;8.65;4.63;;;5.20;63.40;3.90;101188.00;;;;5052647;28;20056;-70
2021/04/27 02:26:23;;;;;;;7.03;4.40;;;7.00;64.80;3.90;101186.00;;;;5055424;28;20039;-70
2021/04/27 02:29:03;;;;;;;7.97;4.68;;;5.20;63.70;3.90;101177.00;;;;5050421;28;20044;-70
2021/04/27 02:31:32;;;;;;;12.55;5.20;;;5.20;63.00;3.90;101180.00;;;;5086637;28;20033;-70
2021/04/27 02:34:00;;;;;;;10.18;5.07;;;5.20;63.30;3.80;101174.00;;;;5034460;28;20055;-70
2021/04/27 02:36:28;;;;;;;9.80;5.28;;;5.20;64.00;3.90;101179.00;;;;5056526;28;20484;-70
2021/04/27 02:39:06;;;;;;;8.27;5.10;;;5.10;63.70;3.80;101176.00;;;;5053811;28;20192;-70
2021/04/27 02:41:33;;;;;;;8.30;5.35;;;5.10;66.00;3.80;101162.00;;;;5038059;28;20071;-71
2021/04/27 02:44:10;;;;;;;6.03;4.55;;;5.10;65.40;3.80;101157.00;;;;5057042;28;20045;-70
2021/04/27 02:46:37;;;;;;;7.65;4.95;;;5.10;63.80;3.80;101155.00;;;;5053300;28;20124;-70
2021/04/27 02:49:05;;;;;;;11.75;5.18;;;5.10;64.60;3.80;101162.00;;;;5055106;28;20051;-71
2021/04/27 02:51:34;;;;;;;9.30;5.35;;;6.60;65.40;3.80;101162.00;;;;5057490;28;21020;-70
2021/04/27 02:54:07;;;;;;;8.52;5.20;;;4.70;64.40;3.80;101165.00;;;;5054900;28;20072;-70
2021/04/27 02:56:36;;;;;;;8.88;5.38;;;5.00;65.00;3.80;101170.00;;;;5058621;28;20106;-70
2021/04/27 02:59:04;;;;;;;8.23;5.45;;;5.00;65.10;3.80;101173.00;;;;5035139;28;20032;-70
2021/04/27 03:01:30;;;;;;;10.80;5.78;;;5.00;63.60;3.70;101174.00;;;;5057000;28;20136;-70
2021/04/27 03:04:00;;;;;;;10.10;5.03;;;5.00;65.10;3.70;101160.00;;;;5038313;28;20512;-70
2021/04/27 03:06:35;;;;;;;10.32;5.38;;;4.80;64.40;3.70;101155.00;;;;5058039;28;20060;-70
2021/04/27 03:09:09;;;;;;;8.27;5.72;;;5.00;64.40;3.70;101157.00;;;;5059560;28;20036;-70
2021/04/27 03:11:38;;;;;;;8.93;5.75;;;5.00;64.30;3.70;101151.00;;;;5055205;28;20041;-70
2021/04/27 03:14:04;;;;;;;11.82;5.57;;;4.90;65.80;3.70;101159.00;;;;5020101;28;20441;-70
2021/04/27 03:16:31;;;;;;;8.40;5.05;;;;;3.60;101149.00;;;;5056791;28;20043;-70
2021/04/27 03:18:57;;;;;;;9.75;5.53;;;4.90;64.10;3.60;101149.00;;;;5056355;28;20036;-70
2021/04/27 03:21:26;;;;;;;8.20;5.53;;;4.90;65.00;3.60;101154.00;;;;5058852;28;20063;-70
2021/04/27 03:23:55;;;;;;;9.63;5.32;;;4.90;65.90;3.60;101151.00;;;;5058141;28;20048;-70
2021/04/27 03:26:22;;;;;;;8.27;5.63;;;4.90;65.30;3.60;101144.00;;;;5054040;28;20045;-70
2021/04/27 03:29:06;;;;;;;8.27;5.28;;;4.80;66.10;3.60;101154.00;;;;5058233;28;20082;-70
2021/04/27 03:31:39;;;;;;;7.35;5.30;;;4.80;65.90;3.60;101151.00;;;;5055962;28;20044;-70
2021/04/27 03:34:05;;;;;;;9.07;5.90;;;4.80;66.60;3.60;101137.00;;;;5054622;28;20037;-70
2021/04/27 03:36:31;;;;;;;10.18;5.63;;;5.00;65.90;3.60;101158.00;;;;5057439;28;21325;-70
2021/04/27 03:39:00;;;;;;;10.05;5.78;;;4.80;66.10;3.60;101150.00;;;;5051514;28;20137;-70
2021/04/27 03:41:26;;;;;;;9.75;5.95;;;;;3.60;101137.00;;;;5056687;28;20487;-70
2021/04/27 03:43:52;;;;;;;10.90;5.70;;;4.80;64.40;3.50;101143.00;;;;5062308;28;20097;-70
2021/04/27 03:46:18;;;;;;;8.70;6.13;;;4.80;65.40;3.50;101146.00;;;;5056967;28;20041;-70
2021/04/27 03:48:44;;;;;;;8.90;6.07;;;4.80;65.60;3.50;101134.00;;;;5057630;28;20123;-70
2021/04/27 03:51:11;;;;;;;8.18;5.80;;;4.80;66.20;3.40;101142.00;;;;5061037;28;20055;-70
2021/04/27 03:53:45;;;;;;;8.88;6.00;;;4.80;65.50;3.50;101139.00;;;;5064189;28;20040;-70
2021/04/27 03:56:28;;;;;;;13.23;6.45;;;4.70;67.10;3.40;101135.00;;;;5043073;28;20056;-70
2021/04/27 03:58:55;;;;;;;12.93;5.95;;;4.70;65.90;3.40;101136.00;;;;5060002;28;20063;-70
2021/04/27 04:01:21;;;;;;;7.68;5.70;;;4.70;66.50;3.40;101126.00;;;;5058918;28;20053;-70
2021/04/27 04:03:47;;;;;;;10.48;5.78;;;4.70;66.90;3.40;101142.00;;;;5043030;28;20086;-69
2021/04/27 04:06:15;;;;;;;8.63;6.07;;;4.70;66.60;3.40;101142.00;;;;5062155;28;20040;-70
2021/04/27 04:09:09;;;;;;;10.88;6.13;;;4.60;66.60;3.40;101146.00;;;;5035605;28;20044;-70
2021/04/27 04:11:45;;;;;;;8.98;6.35;;;4.60;66.80;3.40;101147.00;;;;5033643;28;20487;-70
2021/04/27 04:14:12;;;;;;;9.93;6.00;;;4.60;65.50;3.30;101138.00;;;;5055867;28;20047;-70
2021/04/27 04:16:57;;;;;;;11.70;6.20;;;4.60;67.30;3.30;101138.00;;;;5076765;28;20036;-70
2021/04/27 04:19:24;;;;;;;11.23;6.60;;;4.60;66.10;3.30;101138.00;;;;5076476;28;20071;-70
2021/04/27 04:21:59;;;;;;;9.85;6.55;;;4.10;66.20;3.30;101137.00;;;;5073223;28;23471;-70
2021/04/27 04:24:25;;;;;;;9.02;6.72;;;4.50;65.80;3.20;101131.00;;;;5039661;28;20040;-70
2021/04/27 04:26:51;;;;;;;9.50;6.18;;;4.50;67.40;3.20;101133.00;;;;5024274;28;20646;-70
2021/04/27 04:29:44;;;;;;;8.45;5.95;;;4.50;67.10;3.20;101122.00;;;;5055083;28;20048;-70
2021/04/27 04:32:28;;;;;;;11.63;6.78;;;4.50;67.50;3.20;101127.00;;;;5039652;28;20040;-70
2021/04/27 04:35:15;;;;;;;11.32;6.60;;;4.50;68.10;3.20;101133.00;;;;5053346;28;20625;-70
2021/04/27 04:38:00;;;;;;;10.05;6.90;;;4.20;66.80;3.20;101126.00;;;;5054914;28;20052;-70
2021/04/27 04:40:46;;;;;;;12.23;6.45;;;4.50;67.40;3.20;101127.00;;;;5029018;28;20112;-70
2021/04/27 04:43:30;;;;;;;9.68;6.93;;;4.50;66.90;3.20;101132.00;;;;5056955;28;20098;-69
2021/04/27 04:46:14;;;;;;;12.45;6.70;;;4.50;66.90;3.10;101137.00;;;;5058614;28;20537;-69
2021/04/27 04:48:57;;;;;;;8.93;6.68;;;4.40;67.40;3.10;101143.00;;;;5054243;28;20077;-69
2021/04/27 04:51:29;;;;;;;12.23;6.95;;;4.40;67.70;3.10;101135.00;;;;5056176;28;20474;-69
2021/04/27 04:54:20;;;;;;;11.13;6.53;;;4.40;68.20;3.10;101140.00;;;;5055256;28;20052;-69
2021/04/27 04:56:47;;;;;;;12.10;6.55;;;4.40;67.80;3.10;101137.00;;;;5058410;28;20090;-69
2021/04/27 04:59:14;;;;;;;12.77;7.35;;;4.40;67.30;3.10;101128.00;;;;5061404;28;20045;-69
2021/04/27 05:01:41;;;;;;;10.40;7.05;;;4.40;67.30;3.10;101147.00;;;;5057469;28;20076;-69
2021/04/27 05:04:39;;;;;;;9.60;6.82;;;4.90;67.60;3.10;101130.00;;;;5030457;28;20048;-69
2021/04/27 05:07:26;;;;;;;10.85;7.10;;;4.40;67.60;3.10;101141.00;;;;5059163;28;20094;-69
2021/04/27 05:10:13;;;;;;;12.77;6.97;;;4.40;66.50;3.10;101136.00;;;;5058318;28;20136;-69
2021/04/27 05:12:50;;;;;;;11.05;6.78;;;4.40;67.40;3.20;101133.00;;;;5016182;28;20051;-68
2021/04/27 05:15:17;;;;;;;13.05;6.78;;;4.40;68.10;3.20;101142.00;;;;5058918;28;20502;-69
2021/04/27 05:17:43;;;;;;;9.60;6.68;;;4.50;67.80;3.30;101123.00;;;;5042179;28;20059;-70
2021/04/27 05:20:10;;;;;;;11.50;6.70;;;4.50;66.50;3.30;101135.00;;;;5055796;28;20036;-70
2021/04/27 05:22:45;;;;;;;10.93;7.18;;;4.50;67.50;3.30;101131.00;;;;5038105;28;20040;-69
2021/04/27 05:25:14;;;;;;;13.13;7.30;;;5.30;68.40;3.30;101121.00;;;;5057770;28;20052;-69
2021/04/27 05:27:49;;;;;;;14.98;6.90;;;4.60;66.50;3.40;101135.00;;;;5043900;28;20059;-69
2021/04/27 05:30:16;;;;;;;9.90;7.13;;;4.60;67.30;3.40;101119.00;;;;5061128;28;20031;-69
2021/04/27 05:32:42;;;;;;;12.05;7.07;;;4.60;67.50;3.50;101134.00;;;;5058371;28;20039;-69
2021/04/27 05:35:10;;;;;;;11.77;7.28;;;4.70;67.50;3.60;101136.00;;;;5055604;28;20043;-68
2021/04/27 05:37:36;;;;;;;10.57;6.40;;;4.80;68.00;3.70;101129.00;;;;5028830;28;20596;-69
2021/04/27 05:40:04;;;;;;;14.20;6.97;;;4.90;67.40;3.80;101120.00;;;;5052744;28;20040;-69
2021/04/27 05:42:30;;;;;;;12.25;6.93;;;5.00;67.30;4.00;101138.00;;;;5058981;28;20055;-69
2021/04/27 05:44:56;;;;;;;10.38;6.70;;;5.10;67.60;4.20;101135.00;;;;5051599;28;20099;-69
2021/04/27 05:47:22;;;;;;;9.40;6.47;;;5.20;66.90;4.40;101137.00;;;;5028084;28;20053;-69
2021/04/27 05:49:48;;;;;;;9.73;5.95;;;5.50;66.30;4.60;101140.00;;;;5033400;28;20033;-69
2021/04/27 05:52:14;;;;;;;9.45;5.45;;;5.60;64.80;4.70;101140.00;;;;5056483;28;20040;-69
2021/04/27 05:54:40;;;;;;;9.48;5.65;;;5.70;65.30;4.90;101127.00;;;;5056031;28;20706;-68
2021/04/27 05:57:07;;;;;;;10.30;5.65;;;5.90;64.40;5.10;101131.00;;;;5061562;28;20048;-69
2021/04/27 05:59:33;;;;;;;7.53;5.57;;;6.10;63.30;5.30;101137.00;;;;5057885;28;20044;-69
2021/04/27 06:01:59;;;;;;;7.55;4.63;;;5.50;63.70;5.50;101139.00;;;;5055772;28;21208;-69
2021/04/27 06:04:26;;;;;;;8.52;4.93;;;6.30;63.30;5.70;101148.00;;;;5055655;28;20029;-68
2021/04/27 06:06:52;;;;;;;8.60;5.30;;;6.50;62.90;5.90;101133.00;;;;5057640;28;20051;-69
2021/04/27 06:09:18;;;;;;;9.13;5.20;;;6.70;62.90;6.00;101136.00;;;;5061004;28;20033;-69
2021/04/27 06:11:44;;;;;;;7.47;4.63;;;7.20;62.70;6.10;101141.00;;;;5056545;28;20438;-70
2021/04/27 06:14:11;;;;;;;9.27;5.53;;;6.90;61.70;6.20;101138.00;;;;5051807;28;20168;-70
2021/04/27 06:16:37;;;;;;;5.95;4.72;;;7.20;60.80;6.40;101146.00;;;;5055197;28;20057;-71
2021/04/27 06:19:04;;;;;;;8.25;4.80;;;7.20;61.60;6.50;101144.00;;;;5030246;28;20041;-69
2021/04/27 06:21:31;;;;;;;12.98;5.55;;;7.30;61.30;6.60;101140.00;;;;5034045;28;20403;-69
2021/04/27 06:23:57;;;;;;;9.77;4.90;;;7.50;59.90;6.70;101142.00;;;;5045849;28;20041;-70
2021/04/27 06:26:23;;;;;;;7.70;4.78;;;7.50;60.20;6.80;101161.00;;;;5051514;28;20322;-69
2021/04/27 06:28:49;;;;;;;8.68;5.45;;;7.60;61.10;6.90;101152.00;;;;5053629;28;20045;-69
2021/04/27 06:31:17;;;;;;;7.70;5.18;;;7.70;60.90;7.10;101148.00;;;;5052817;28;20054;-69
2021/04/27 06:33:42;;;;;;;7.45;4.68;;;7.90;60.80;7.10;101161.00;;;;5049061;28;20036;-70
2021/04/27 06:36:09;;;;;;;10.77;5.72;;;7.90;60.70;7.30;101157.00;;;;5046201;28;20428;-69
2021/04/27 06:38:35;;;;;;;7.88;5.32;;;8.10;59.50;7.40;101152.00;;;;5029645;28;20372;-69
2021/04/27 06:41:00;;;;;;;9.05;5.07;;;10.10;61.70;7.50;101158.00;;;;5037060;28;20132;-70
2021/04/27 06:43:26;;;;;;;12.15;5.38;;;8.30;60.20;7.70;101157.00;;;;5029448;28;20041;-69
2021/04/27 06:45:52;;;;;;;12.43;5.78;;;8.40;58.30;7.80;101159.00;;;;5053259;28;20044;-69
2021/04/27 06:48:18;;;;;;;8.82;5.05;;;8.50;60.00;8.00;101159.00;;;;5058179;28;20131;-70
2021/04/27 06:50:45;;;;;;;10.07;5.22;;;8.70;59.90;8.10;101167.00;;;;5050592;28;20045;-69
2021/04/27 06:53:11;;;;;;;8.13;5.07;;;8.80;59.40;8.30;101165.00;;;;5053043;28;20111;-70
2021/04/27 06:55:38;;;;;;;9.80;5.32;;;9.10;58.00;8.40;101159.00;;;;5051697;28;20068;-70
2021/04/27 06:58:14;;;;;;;7.60;5.10;;;9.10;59.00;8.50;101156.00;;;;5051509;28;20599;-69
2021/04/27 07:00:41;;;;;;;6.53;5.05;;;9.20;58.00;8.60;101148.00;;;;5066785;28;20605;-70
2021/04/27 07:03:07;;;;;;;9.55;5.10;;;9.30;58.60;8.70;101157.00;;;;5047330;28;20037;-71
2021/04/27 07:05:34;;;;;;;10.52;4.85;;;9.50;56.00;8.90;101157.00;;;;5051876;28;20059;-71
2021/04/27 07:08:01;;;;;;;7.55;5.43;;;9.50;57.90;8.90;101150.00;;;;5052122;28;20183;-70
2021/04/27 07:10:28;;;;;;;9.02;5.25;;;9.60;57.90;9.00;101157.00;;;;5055596;28;20399;-71
2021/04/27 07:12:54;;;;;;;8.10;4.63;;;9.70;58.20;9.10;101153.00;;;;5056930;28;20041;-70
2021/04/27 07:15:21;;;;;;;7.95;4.45;;;9.80;57.80;9.20;101146.00;;;;5059374;28;20174;-70
2021/04/27 07:17:47;;;;;;;7.38;4.70;;;10.00;56.80;9.30;101146.00;;;;5076476;28;20136;-71
2021/04/27 07:20:14;;;;;;;10.38;4.25;;;10.00;55.20;9.40;101154.00;;;;5068374;28;21894;-71
2021/04/27 07:22:40;;;;;;;7.38;4.82;;;10.20;55.20;9.60;101144.00;;;;5087490;27;20044;-71
2021/04/27 07:25:08;;;;;;;5.27;3.73;;;10.30;56.60;9.80;101150.00;;;;5059985;28;20044;-71
2021/04/27 07:27:35;;;;;;;7.22;4.30;;;10.40;54.50;10.00;101154.00;;;;5053502;28;20041;-72
2021/04/27 07:30:01;;;;;;;5.75;4.07;;;10.60;56.10;10.10;101154.00;;;;5058818;28;20047;-71
2021/04/27 07:32:27;;;;;;;7.72;4.80;;;10.70;54.50;10.20;101143.00;;;;5044054;28;20044;-71
2021/04/27 07:34:53;;;;;;;12.88;4.00;;;11.10;54.90;10.30;101144.00;;;;5056675;28;20077;-71
2021/04/27 07:37:20;;;;;;;7.60;3.80;;;10.90;53.40;10.40;101151.00;;;;5052095;28;20171;-70
2021/04/27 07:39:46;;;;;;;6.22;3.75;;;11.10;49.40;10.50;101143.00;;;;5055833;28;20079;-71
2021/04/27 07:42:12;;;;;;;8.18;4.00;;;11.20;50.50;10.60;101135.00;;;;5054869;28;20082;-70
2021/04/27 07:44:38;;;;;;;7.40;3.67;;;11.30;47.90;10.80;101127.00;;;;5058603;28;20044;-71
2021/04/27 07:47:05;;;;;;;4.88;3.22;;;11.40;51.70;11.10;101145.00;;;;5057277;28;20147;-71
2021/04/27 07:49:31;;;;;;;6.33;3.60;;;11.60;51.00;11.20;101136.00;;;;5058399;28;20033;-72
2021/04/27 07:51:57;;;;;;;6.03;3.60;;;11.70;45.50;11.30;101145.00;;;;5057472;28;20310;-72
2021/04/27 07:54:23;;;;;;;6.20;3.60;;;11.80;49.50;11.40;101145.00;;;;5058001;28;20045;-72
2021/04/27 07:56:49;;;;;;;7.38;3.47;;;12.00;47.00;11.40;101137.00;;;;5042471;28;20037;-72
2021/04/27 07:59:17;;;;;;;4.23;3.37;;;11.90;48.30;11.50;101145.00;;;;5055592;28;20488;-70
2021/04/27 08:01:42;;;;;;;6.00;3.60;;;12.10;47.30;11.60;101140.00;;;;5057662;28;20129;-71
2021/04/27 08:04:09;;;;;;;8.10;3.47;;;12.20;47.90;11.70;101140.00;;;;5038800;28;20515;-71
2021/04/27 08:06:35;;;;;;;7.93;4.45;;;12.20;48.10;11.70;101139.00;;;;5057023;28;20041;-71
2021/04/27 08:09:03;;;;;;;4.78;3.70;;;12.30;46.30;11.90;101146.00;;;;5056041;28;20164;-71
2021/04/27 08:11:31;;;;;;;4.68;3.50;;;12.40;48.00;12.00;101142.00;;;;5057577;28;20059;-71
2021/04/27 08:13:56;;;;;;;;;;;12.50;47.60;12.00;101138.00;;;;5057506;28;21162;-71
2021/04/27 08:16:22;;;;;;;8.63;3.70;;;12.60;44.80;12.20;101139.00;;;;5059544;28;20003;-72
2021/04/27 08:18:48;;;;;;;7.30;3.53;;;12.80;46.90;12.30;101146.00;;;;5053831;28;20049;-71
2021/04/27 08:21:14;;;;;;;4.68;3.50;;;12.80;47.90;12.40;101128.00;;;;5021768;28;20554;-72
2021/04/27 08:23:41;;;;;;;4.13;3.42;;;13.00;44.80;12.50;101130.00;;;;5054790;28;20036;-73
2021/04/27 08:26:12;;;;;;;7.35;4.13;;;13.00;47.70;12.60;101132.00;;;;5049302;28;20051;-72
2021/04/27 08:28:39;;;;;;;5.75;3.53;;;13.10;45.60;12.70;101134.00;;;;5055836;28;21958;-72
2021/04/27 08:31:05;;;;;;;6.05;3.40;;;13.20;46.00;12.80;101128.00;;;;5018322;28;20605;-73
2021/04/27 08:33:32;;;;;;;5.90;3.65;;;13.40;46.50;12.80;101136.00;;;;5063381;28;20036;-72
2021/04/27 08:35:58;;;;;;;5.45;3.50;;;13.40;45.00;12.80;101124.00;;;;5041738;28;20147;-73
2021/04/27 08:38:24;;;;;;;7.00;3.70;;;13.70;45.40;12.80;101137.00;;;;5059423;28;20525;-72
2021/04/27 08:40:50;;;;;;;6.32;3.47;;;13.40;45.50;12.90;101138.00;;;;5067787;28;20531;-72
2021/04/27 08:43:17;;;;;;;6.70;3.40;;;13.50;44.10;13.00;101135.00;;;;5070530;28;20048;-72
2021/04/27 08:45:44;;;;;;;7.63;3.50;;;13.50;44.70;13.00;101131.00;;;;5056819;28;20128;-72
2021/04/27 08:48:15;;;;;;;;;;;13.60;44.80;13.10;101127.00;;;;5060485;28;20075;-72
2021/04/27 08:50:43;;;;;;;5.20;3.20;;;13.80;41.90;13.30;101126.00;;;;5056545;28;19924;-72
2021/04/27 08:53:11;;;;;;;7.95;3.58;;;13.80;43.80;13.50;101124.00;;;;5052448;28;20037;-71
2021/04/27 08:55:38;;;;;;;7.65;3.20;;;14.00;42.40;13.50;101125.00;;;;5071766;28;20118;-71
2021/04/27 08:58:09;;;;;;;6.25;3.70;;;14.10;41.20;13.60;101128.00;;;;5057692;28;20048;-72
2021/04/27 09:00:37;;;;;;;6.65;3.53;;;14.20;44.00;13.80;101125.00;;;;5050967;28;20793;-73
2021/04/27 09:03:07;;;;;;;10.23;3.63;;;14.30;44.40;13.90;101131.00;;;;5049220;28;20036;-71
2021/04/27 09:05:37;;;;;;;8.35;3.80;;;14.40;39.10;14.00;101122.00;;;;5044303;28;20045;-72
2021/04/27 09:08:04;;;;;;;6.00;3.22;;;14.50;39.50;14.10;101115.00;;;;5052273;28;20372;-72
2021/04/27 09:10:43;;;;;;;8.45;4.28;;;14.50;41.70;14.10;101121.00;;;;5054869;28;20036;-72
2021/04/27 09:13:18;;;;;;;8.45;4.28;;;14.60;42.50;14.20;101128.00;;;;5071296;28;20037;-71
2021/04/27 09:15:52;;;;;;;6.13;3.92;;;14.70;41.10;14.40;101127.00;;;;5088108;27;20044;-71
2021/04/27 09:18:33;;;;;;;6.65;3.83;;;14.90;41.80;14.40;101126.00;;;;5056465;28;20048;-71
2021/04/27 09:21:06;;;;;;;6.68;4.15;;;14.90;36.30;14.50;101127.00;;;;5037604;28;20098;-71
2021/04/27 09:23:36;;;;;;;6.82;4.05;;;14.40;38.00;14.60;101122.00;;;;5057967;28;20040;-71
2021/04/27 09:26:20;;;;;;;9.05;4.03;;;15.20;39.60;14.70;101118.00;;;;5047266;28;20051;-71
2021/04/27 09:28:49;;;;;;;8.65;4.15;;;15.20;40.70;14.80;101115.00;;;;5052513;28;20052;-71
2021/04/27 09:31:37;;;;;;;6.97;3.45;;;15.20;40.60;14.80;101117.00;;;;5054395;28;20043;-71
2021/04/27 09:34:22;;;;;;;4.45;3.60;;;15.30;40.60;15.00;101123.00;;;;5084709;27;20120;-70
2021/04/27 09:37:05;;;;;;;7.45;3.80;;;15.50;38.50;15.00;101106.00;;;;5067864;28;20095;-71
2021/04/27 09:39:50;;;;;;;6.05;3.92;;;15.50;41.30;15.00;101107.00;;;;5048999;28;20784;-70
2021/04/27 09:42:19;;;;;;;8.52;3.83;;;15.60;39.30;15.10;101101.00;;;;5080098;27;20622;-71
2021/04/27 09:44:56;;;;;;;6.55;3.50;;;15.60;40.40;15.10;101102.00;;;;5057285;28;20093;-70
2021/04/27 09:47:30;;;;;;;6.28;3.65;;;15.60;39.20;15.20;101105.00;;;;5051150;28;20048;-70
2021/04/27 09:50:09;;;;;;;5.53;3.70;;;15.90;37.90;15.30;101102.00;;;;5054370;28;20044;-71
2021/04/27 09:52:47;;;;;;;7.18;3.65;;;15.90;39.00;15.40;101094.00;;;;5055560;28;20041;-70
2021/04/27 09:55:17;;;;;;;6.35;3.65;;;16.00;37.20;15.50;101078.00;;;;5049149;28;20052;-70
2021/04/27 09:57:50;;;;;;;11.52;3.72;;;16.00;38.20;15.50;101078.00;;;;5051779;28;20032;-70
2021/04/27 10:00:28;;;;;;;10.77;3.70;;;16.00;34.70;15.50;101081.00;;;;5055623;28;20048;-70
2021/04/27 10:03:06;;;;;;;7.30;3.65;;;16.00;37.80;15.60;101067.00;;;;5042845;28;20593;-70
2021/04/27 10:05:34;;;;;;;8.52;4.10;;;16.10;36.80;15.60;101071.00;;;;5055070;28;20101;-71
2021/04/27 10:08:01;;;;;;;9.05;3.65;;;16.10;35.10;15.80;101074.00;;;;5056290;28;20048;-71
2021/04/27 10:10:30;;;;;;;9.20;4.00;;;16.20;37.60;15.80;101065.00;;;;5034356;28;20075;-70
2021/04/27 10:12:59;;;;;;;6.32;3.70;;;16.30;37.50;15.80;101060.00;;;;5058528;28;20740;-71
2021/04/27 10:15:26;;;;;;;8.70;3.85;;;16.30;36.20;15.90;101058.00;;;;5055680;28;20037;-72
2021/04/27 10:17:53;;;;;;;4.55;3.58;;;16.40;37.00;16.00;101064.00;;;;5033685;28;20045;-73
2021/04/27 10:20:19;;;;;;;7.00;3.70;;;16.50;37.00;16.00;101062.00;;;;5040314;28;20174;-71
2021/04/27 10:22:49;;;;;;;6.07;3.37;;;16.60;33.20;16.10;101065.00;;;;5057839;28;20768;-71
2021/04/27 10:25:26;;;;;;;5.50;3.50;;;16.60;35.80;16.20;101054.00;;;;5053399;28;20506;-71
2021/04/27 10:28:04;;;;;;;8.83;3.53;;;16.70;34.50;16.20;101051.00;;;;5051445;28;20408;-71
2021/04/27 10:30:42;;;;;;;5.70;3.10;;;16.70;36.80;16.30;101055.00;;;;5044457;28;20793;-71
2021/04/27 10:33:13;;;;;;;5.70;3.97;;;16.80;35.40;16.40;101047.00;;;;5055953;28;20045;-71
2021/04/27 10:36:01;;;;;;;11.10;3.40;;;17.00;36.10;16.50;101049.00;;;;5059364;28;20491;-71
2021/04/27 10:38:50;;;;;;;5.28;3.00;;;16.90;34.90;16.30;101040.00;;;;5057167;28;20045;-70
2021/04/27 10:41:22;;;;;;;4.90;2.95;;;16.90;30.90;16.40;101033.00;;;;5068083;28;20048;-70
2021/04/27 10:43:59;;;;;;;5.22;3.20;;;16.90;34.90;16.50;101033.00;;;;5055491;28;20048;-71
2021/04/27 10:46:25;;;;;;;5.88;3.40;;;17.00;34.40;16.50;101030.00;;;;5055423;28;20131;-71
2021/04/27 10:48:51;;;;;;;6.68;3.22;;;17.00;34.60;16.70;101024.00;;;;5053356;28;20926;-70
2021/04/27 10:51:20;;;;;;;9.15;3.50;;;17.10;34.40;16.70;101036.00;;;;5056198;28;20043;-70
2021/04/27 10:54:19;;;;;;;6.75;3.05;;;17.20;34.40;16.70;101036.00;;;;5053439;28;20667;-70
2021/04/27 10:56:53;;;;;;;7.28;3.42;;;17.20;29.20;16.80;101032.00;;;;5051188;28;20040;-70
2021/04/27 10:59:22;;;;;;;5.00;3.25;;;17.30;34.50;16.80;101033.00;;;;5054171;28;20483;-71
2021/04/27 11:02:11;;;;;;;6.28;3.15;;;17.40;35.00;16.90;101015.00;;;;5051856;28;20067;-71
2021/04/27 11:04:44;;;;;;;5.30;2.78;;;17.50;34.80;17.10;101022.00;;;;5037782;28;20645;-70
2021/04/27 11:07:22;;;;;;;9.68;3.53;;;17.60;33.10;17.20;101018.00;;;;5051343;28;20388;-71
2021/04/27 11:10:17;;;;;;;6.13;3.15;;;17.70;33.20;17.30;101004.00;;;;5055861;28;20167;-71